Estación Meteorológica Peña el Pijo (Robertgarden) [ 01/30/23 13:45:33 CET ]

Fecha Hora Presion(HPa) Temp (°C) Humedad % Rocio (°C) Viento ( m/s) Direccion Lluvia 1Hora(mm) Lluvia 24H(mm) LLuvia Total(mm)
2010-Jul-30 01:01:14 1011.000 21.8 47 9.9         130.53
2010-Jul-30 02:01:16 1011.200 20.8 55 11.4         130.53
2010-Jul-30 03:03:15 1011.300 18.9 58 10.5         130.53
2010-Jul-30 04:01:12 1011.000 17.5 64 10.6         130.53
2010-Jul-30 05:01:16 1010.500 16.9 71 11.6         130.53
2010-Jul-30 06:01:13 1010.600 16.9 76 12.6         130.53
2010-Jul-30 07:01:13 1010.600 15.5 78 11.7         130.53
2010-Jul-30 08:01:16 1011.000 15.5 81 12.3         130.53
2010-Jul-30 09:01:17 1011.600 20.5 74 15.7         130.53
2010-Jul-30 10:01:17 1011.600 24.2 63 16.7         130.53
2010-Jul-30 11:01:19 1011.300 28.6 50 17.2         130.53
2010-Jul-30 12:01:14 1011.000 32.9 40 17.5         130.53
2010-Jul-30 13:01:14 1010.700 33.9 36 16.6         130.53
2010-Jul-30 14:01:13 1010.600 34.5 32 15.3         130.53
2010-Jul-30 15:01:17 1010.300 36.1 27 13.9         130.53
2010-Jul-30 16:01:16 1010.000 36.5 27 14.3         130.53
2010-Jul-30 17:01:11 1010.100 35.8 29 14.9         130.53
2010-Jul-30 18:01:16 1010.100 34.6 33 15.9         130.53
2010-Jul-30 19:01:16 1010.100 32.8 35 15.2         130.53
2010-Jul-30 20:01:16 1010.600 29.8 44 16.2         130.53
2010-Jul-30 21:01:11 1011.400 27.1 52 16.4         130.53
2010-Jul-30 22:01:13 1011.900 25.1 60 16.8 1.0 NNE     130.53
2010-Jul-30 23:01:12 1012.800 23.3 67 16.8         130.53

Temperatura Máxima:36°    Temperatura Mínima:15°
Presión Máxima:1012.800 Hpa    Presión Mínima:1010.000 Hpa


Volver